sensor_id;sensor_type;location;lat;lon;timestamp;pressure;altitude;pressure_sealevel;temperature;humidity
28181;BME280;15464;50.988;10.318;2023-05-10T00:00:55;98123.91;;;12.68;58.24
28181;BME280;15464;50.988;10.318;2023-05-10T00:03:21;98129.41;;;12.67;58.00
28181;BME280;15464;50.988;10.318;2023-05-10T00:05:48;98122.28;;;12.67;57.89
28181;BME280;15464;50.988;10.318;2023-05-10T00:08:15;98124.09;;;12.67;57.70
28181;BME280;15464;50.988;10.318;2023-05-10T00:10:42;98120.59;;;12.66;58.10
28181;BME280;15464;50.988;10.318;2023-05-10T00:13:08;98118.59;;;12.68;58.36
28181;BME280;15464;50.988;10.318;2023-05-10T00:15:35;98121.25;;;12.60;59.41
28181;BME280;15464;50.988;10.318;2023-05-10T00:18:02;98117.25;;;12.64;59.80
28181;BME280;15464;50.988;10.318;2023-05-10T00:20:29;98114.59;;;12.64;59.29
28181;BME280;15464;50.988;10.318;2023-05-10T00:22:56;98121.44;;;12.67;60.23
28181;BME280;15464;50.988;10.318;2023-05-10T00:25:22;98114.44;;;12.66;59.95
28181;BME280;15464;50.988;10.318;2023-05-10T00:27:49;98111.63;;;12.67;59.23
28181;BME280;15464;50.988;10.318;2023-05-10T00:30:16;98105.28;;;12.68;60.17
28181;BME280;15464;50.988;10.318;2023-05-10T00:32:43;98106.78;;;12.63;60.19
28181;BME280;15464;50.988;10.318;2023-05-10T00:35:10;98114.59;;;12.64;60.52
28181;BME280;15464;50.988;10.318;2023-05-10T00:37:37;98109.28;;;12.64;61.94
28181;BME280;15464;50.988;10.318;2023-05-10T00:40:05;98105.94;;;12.62;61.02
28181;BME280;15464;50.988;10.318;2023-05-10T00:42:32;98106.47;;;12.66;61.17
28181;BME280;15464;50.988;10.318;2023-05-10T00:44:59;98111.63;;;12.67;60.99
28181;BME280;15464;50.988;10.318;2023-05-10T00:47:26;98108.63;;;12.70;60.62
28181;BME280;15464;50.988;10.318;2023-05-10T00:49:53;98110.47;;;12.78;62.32
28181;BME280;15464;50.988;10.318;2023-05-10T00:52:20;98107.97;;;12.84;62.31
28181;BME280;15464;50.988;10.318;2023-05-10T00:54:47;98100.47;;;12.88;62.92
28181;BME280;15464;50.988;10.318;2023-05-10T00:57:14;98096.16;;;12.95;61.97
28181;BME280;15464;50.988;10.318;2023-05-10T00:59:41;98099.16;;;13.00;62.41
28181;BME280;15464;50.988;10.318;2023-05-10T01:02:07;98092.66;;;13.03;63.28
28181;BME280;15464;50.988;10.318;2023-05-10T01:04:35;98098.00;;;13.03;64.54
28181;BME280;15464;50.988;10.318;2023-05-10T01:07:02;98094.66;;;13.01;65.86
28181;BME280;15464;50.988;10.318;2023-05-10T01:09:28;98093.00;;;13.00;66.13
28181;BME280;15464;50.988;10.318;2023-05-10T01:11:56;98100.66;;;13.03;65.73
28181;BME280;15464;50.988;10.318;2023-05-10T01:14:23;98096.34;;;13.02;67.58
28181;BME280;15464;50.988;10.318;2023-05-10T01:16:52;98102.31;;;12.96;68.94
28181;BME280;15464;50.988;10.318;2023-05-10T01:19:24;98106.31;;;12.91;68.69
28181;BME280;15464;50.988;10.318;2023-05-10T01:33:01;98108.13;;;12.83;70.92
28181;BME280;15464;50.988;10.318;2023-05-10T01:38:45;98109.31;;;12.80;73.21
28181;BME280;15464;50.988;10.318;2023-05-10T01:43:54;98110.78;;;12.75;75.25
28181;BME280;15464;50.988;10.318;2023-05-10T01:46:30;98111.97;;;12.72;75.14
28181;BME280;15464;50.988;10.318;2023-05-10T01:49:00;98107.63;;;12.71;73.06
28181;BME280;15464;50.988;10.318;2023-05-10T01:51:37;98109.94;;;12.74;74.62
28181;BME280;15464;50.988;10.318;2023-05-10T01:54:06;98108.63;;;12.70;75.84
28181;BME280;15464;50.988;10.318;2023-05-10T01:56:35;98103.13;;;12.64;77.85
28181;BME280;15464;50.988;10.318;2023-05-10T01:59:11;98108.28;;;12.65;78.13
28181;BME280;15464;50.988;10.318;2023-05-10T02:01:40;98118.78;;;12.67;78.13
28181;BME280;15464;50.988;10.318;2023-05-10T02:04:08;98123.09;;;12.68;77.38
28181;BME280;15464;50.988;10.318;2023-05-10T02:06:36;98122.59;;;12.64;76.33
28181;BME280;15464;50.988;10.318;2023-05-10T02:09:05;98118.59;;;12.60;76.97
28181;BME280;15464;50.988;10.318;2023-05-10T02:11:33;98118.59;;;12.60;77.44
28181;BME280;15464;50.988;10.318;2023-05-10T02:14:00;98121.09;;;12.62;78.01
28181;BME280;15464;50.988;10.318;2023-05-10T02:16:28;98125.75;;;12.60;78.59
28181;BME280;15464;50.988;10.318;2023-05-10T02:18:58;98117.75;;;12.60;77.21
28181;BME280;15464;50.988;10.318;2023-05-10T02:21:26;98115.78;;;12.62;77.80
28181;BME280;15464;50.988;10.318;2023-05-10T02:23:55;98120.28;;;12.61;78.88
28181;BME280;15464;50.988;10.318;2023-05-10T02:26:23;98116.59;;;12.54;79.64
28181;BME280;15464;50.988;10.318;2023-05-10T02:28:53;98119.91;;;12.56;77.74
28181;BME280;15464;50.988;10.318;2023-05-10T02:31:21;98118.91;;;12.57;79.69
28181;BME280;15464;50.988;10.318;2023-05-10T02:33:48;98118.06;;;12.57;79.85
28181;BME280;15464;50.988;10.318;2023-05-10T02:36:16;98115.59;;;12.55;80.80
28181;BME280;15464;50.988;10.318;2023-05-10T02:38:44;98114.44;;;12.58;79.53
28181;BME280;15464;50.988;10.318;2023-05-10T02:41:12;98120.09;;;12.55;81.17
28181;BME280;15464;50.988;10.318;2023-05-10T02:43:40;98127.06;;;12.56;80.14
28181;BME280;15464;50.988;10.318;2023-05-10T02:46:07;98118.91;;;12.57;81.05
28181;BME280;15464;50.988;10.318;2023-05-10T02:48:34;98118.91;;;12.57;81.53
28181;BME280;15464;50.988;10.318;2023-05-10T02:51:05;98113.59;;;12.57;82.08
28181;BME280;15464;50.988;10.318;2023-05-10T02:53:35;98112.09;;;12.46;83.54
28181;BME280;15464;50.988;10.318;2023-05-10T02:56:05;98114.91;;;12.45;83.52
28181;BME280;15464;50.988;10.318;2023-05-10T02:58:37;98111.25;;;12.46;83.42
28181;BME280;15464;50.988;10.318;2023-05-10T03:01:04;98108.44;;;12.47;83.10
28181;BME280;15464;50.988;10.318;2023-05-10T03:03:30;98105.09;;;12.45;84.10
28181;BME280;15464;50.988;10.318;2023-05-10T03:05:57;98115.44;;;12.48;84.54
28181;BME280;15464;50.988;10.318;2023-05-10T03:08:24;98118.72;;;12.50;84.62
28181;BME280;15464;50.988;10.318;2023-05-10T03:16:16;98115.91;;;12.52;84.89
28181;BME280;15464;50.988;10.318;2023-05-10T03:21:22;98112.91;;;12.47;84.33
28181;BME280;15464;50.988;10.318;2023-05-10T03:23:59;98121.06;;;12.45;84.85
28181;BME280;15464;50.988;10.318;2023-05-10T03:26:27;98116.72;;;12.44;86.40
28181;BME280;15464;50.988;10.318;2023-05-10T03:28:55;98118.88;;;12.41;86.78
28181;BME280;15464;50.988;10.318;2023-05-10T03:31:22;98114.06;;;12.44;87.47
28181;BME280;15464;50.988;10.318;2023-05-10T03:33:50;98110.22;;;12.39;87.85
28181;BME280;15464;50.988;10.318;2023-05-10T03:36:17;98107.56;;;12.39;87.87
28181;BME280;15464;50.988;10.318;2023-05-10T03:38:44;98111.91;;;12.40;87.54
28181;BME280;15464;50.988;10.318;2023-05-10T03:41:11;98116.91;;;12.43;87.12
28181;BME280;15464;50.988;10.318;2023-05-10T03:43:37;98114.91;;;12.45;86.97
28181;BME280;15464;50.988;10.318;2023-05-10T03:46:05;98112.91;;;12.47;86.61
28181;BME280;15464;50.988;10.318;2023-05-10T03:48:32;98114.91;;;12.45;88.09
28181;BME280;15464;50.988;10.318;2023-05-10T03:50:59;98112.09;;;12.46;86.14
28181;BME280;15464;50.988;10.318;2023-05-10T03:53:26;98112.09;;;12.46;88.15
28181;BME280;15464;50.988;10.318;2023-05-10T03:55:53;98108.75;;;12.44;87.85
28181;BME280;15464;50.988;10.318;2023-05-10T03:58:20;98109.59;;;12.45;87.34
28181;BME280;15464;50.988;10.318;2023-05-10T04:00:46;98114.75;;;12.46;87.70
28181;BME280;15464;50.988;10.318;2023-05-10T04:03:13;98110.91;;;12.41;89.29
28181;BME280;15464;50.988;10.318;2023-05-10T04:05:40;98112.41;;;12.43;89.08
28181;BME280;15464;50.988;10.318;2023-05-10T04:08:07;98115.88;;;12.44;89.55
28181;BME280;15464;50.988;10.318;2023-05-10T04:13:00;98130.56;;;12.48;89.11
28181;BME280;15464;50.988;10.318;2023-05-10T04:15:27;98133.50;;;12.37;92.53
28181;BME280;15464;50.988;10.318;2023-05-10T04:17:54;98139.16;;;12.34;93.16
28181;BME280;15464;50.988;10.318;2023-05-10T04:20:20;98141.97;;;12.32;92.98
28181;BME280;15464;50.988;10.318;2023-05-10T04:22:47;98142.09;;;12.23;95.90
28181;BME280;15464;50.988;10.318;2023-05-10T04:25:14;98149.94;;;12.24;94.26
28181;BME280;15464;50.988;10.318;2023-05-10T04:27:40;98136.78;;;12.23;95.97
28181;BME280;15464;50.988;10.318;2023-05-10T04:30:08;98142.09;;;12.23;95.33
28181;BME280;15464;50.988;10.318;2023-05-10T04:32:35;98134.44;;;12.20;96.69
28181;BME280;15464;50.988;10.318;2023-05-10T04:35:01;98140.06;;;12.08;98.73
28181;BME280;15464;50.988;10.318;2023-05-10T04:37:31;98139.09;;;12.18;94.99
28181;BME280;15464;50.988;10.318;2023-05-10T04:39:57;98143.78;;;12.24;95.51
28181;BME280;15464;50.988;10.318;2023-05-10T04:42:26;98140.94;;;12.25;95.07
28181;BME280;15464;50.988;10.318;2023-05-10T04:44:52;98142.59;;;12.26;95.14
28181;BME280;15464;50.988;10.318;2023-05-10T04:47:19;98142.75;;;12.17;97.85
28181;BME280;15464;50.988;10.318;2023-05-10T04:49:46;98152.06;;;12.21;96.19
28181;BME280;15464;50.988;10.318;2023-05-10T04:52:12;98149.84;;;12.08;99.93
28181;BME280;15464;50.988;10.318;2023-05-10T04:54:40;98150.00;;;12.06;100.00
28181;BME280;15464;50.988;10.318;2023-05-10T04:57:07;98148.38;;;12.05;100.00
28181;BME280;15464;50.988;10.318;2023-05-10T04:59:35;98145.53;;;12.07;100.00
28181;BME280;15464;50.988;10.318;2023-05-10T05:02:03;98156.69;;;12.19;97.55
28181;BME280;15464;50.988;10.318;2023-05-10T05:04:31;98154.22;;;12.25;96.92
28181;BME280;15464;50.988;10.318;2023-05-10T05:06:58;98159.41;;;12.27;97.02
28181;BME280;15464;50.988;10.318;2023-05-10T05:09:24;98165.69;;;12.26;97.16
28181;BME280;15464;50.988;10.318;2023-05-10T05:11:51;98164.06;;;12.33;95.24
28181;BME280;15464;50.988;10.318;2023-05-10T05:14:17;98163.56;;;12.29;97.29
28181;BME280;15464;50.988;10.318;2023-05-10T05:16:44;98165.69;;;12.18;100.00
28181;BME280;15464;50.988;10.318;2023-05-10T05:19:11;98179.63;;;12.20;99.70
28181;BME280;15464;50.988;10.318;2023-05-10T05:21:37;98170.38;;;12.24;98.93
28181;BME280;15464;50.988;10.318;2023-05-10T05:24:05;98185.34;;;12.33;97.26
28181;BME280;15464;50.988;10.318;2023-05-10T05:26:32;98182.19;;;12.37;99.50
28181;BME280;15464;50.988;10.318;2023-05-10T05:28:58;98181.19;;;12.30;100.00
28181;BME280;15464;50.988;10.318;2023-05-10T05:31:25;98192.28;;;12.26;100.00
28181;BME280;15464;50.988;10.318;2023-05-10T05:33:52;98190.47;;;12.26;100.00
28181;BME280;15464;50.988;10.318;2023-05-10T05:36:18;98190.31;;;12.28;100.00
28181;BME280;15464;50.988;10.318;2023-05-10T05:38:45;98193.66;;;12.38;100.00
28181;BME280;15464;50.988;10.318;2023-05-10T05:41:12;98192.88;;;12.45;100.00
28181;BME280;15464;50.988;10.318;2023-05-10T05:43:38;98197.34;;;12.45;100.00
28181;BME280;15464;50.988;10.318;2023-05-10T05:46:06;98198.34;;;12.44;100.00
28181;BME280;15464;50.988;10.318;2023-05-10T05:48:32;98197.84;;;12.40;100.00
28181;BME280;15464;50.988;10.318;2023-05-10T05:50:59;98201.84;;;12.44;100.00
28181;BME280;15464;50.988;10.318;2023-05-10T05:53:26;98202.72;;;12.53;100.00
28181;BME280;15464;50.988;10.318;2023-05-10T05:55:57;98201.72;;;12.62;100.00
28181;BME280;15464;50.988;10.318;2023-05-10T05:58:25;98205.06;;;12.64;100.00
28181;BME280;15464;50.988;10.318;2023-05-10T06:00:52;98215.03;;;12.62;100.00
28181;BME280;15464;50.988;10.318;2023-05-10T06:03:19;98221.03;;;12.64;100.00
28181;BME280;15464;50.988;10.318;2023-05-10T06:05:47;98215.75;;;12.72;100.00
28181;BME280;15464;50.988;10.318;2023-05-10T06:08:14;98220.91;;;12.74;100.00
28181;BME280;15464;50.988;10.318;2023-05-10T06:10:41;98227.38;;;12.71;100.00
28181;BME280;15464;50.988;10.318;2023-05-10T06:13:07;98230.06;;;12.79;100.00
28181;BME280;15464;50.988;10.318;2023-05-10T06:15:34;98229.72;;;12.82;100.00
28181;BME280;15464;50.988;10.318;2023-05-10T06:18:01;98237.88;;;12.81;100.00
28181;BME280;15464;50.988;10.318;2023-05-10T06:20:27;98231.41;;;12.83;100.00
28181;BME280;15464;50.988;10.318;2023-05-10T06:22:54;98240.41;;;12.90;100.00
28181;BME280;15464;50.988;10.318;2023-05-10T06:25:21;98242.91;;;12.92;100.00
28181;BME280;15464;50.988;10.318;2023-05-10T06:27:47;98252.03;;;12.89;100.00
28181;BME280;15464;50.988;10.318;2023-05-10T06:30:19;98250.34;;;12.72;100.00
28181;BME280;15464;50.988;10.318;2023-05-10T06:32:46;98247.88;;;12.87;100.00
28181;BME280;15464;50.988;10.318;2023-05-10T06:35:13;98251.38;;;12.96;100.00
28181;BME280;15464;50.988;10.318;2023-05-10T06:37:40;98258.84;;;12.84;100.00
28181;BME280;15464;50.988;10.318;2023-05-10T06:40:07;98251.38;;;12.96;100.00
28181;BME280;15464;50.988;10.318;2023-05-10T06:42:34;98258.72;;;13.02;100.00
28181;BME280;15464;50.988;10.318;2023-05-10T06:45:01;98255.75;;;13.05;100.00
28181;BME280;15464;50.988;10.318;2023-05-10T06:47:27;98269.72;;;13.07;100.00
28181;BME280;15464;50.988;10.318;2023-05-10T06:49:54;98265.03;;;13.01;100.00
28181;BME280;15464;50.988;10.318;2023-05-10T06:52:22;98259.28;;;13.13;100.00
28181;BME280;15464;50.988;10.318;2023-05-10T06:54:49;98269.78;;;13.15;100.00
28181;BME280;15464;50.988;10.318;2023-05-10T06:57:16;98272.91;;;13.18;100.00
28181;BME280;15464;50.988;10.318;2023-05-10T06:59:57;98263.44;;;13.16;100.00
28181;BME280;15464;50.988;10.318;2023-05-10T07:02:24;98269.63;;;13.16;100.00
28181;BME280;15464;50.988;10.318;2023-05-10T07:04:51;98264.94;;;13.18;100.00
28181;BME280;15464;50.988;10.318;2023-05-10T07:07:18;98264.47;;;13.23;100.00
28181;BME280;15464;50.988;10.318;2023-05-10T07:09:45;98274.44;;;13.21;100.00
28181;BME280;15464;50.988;10.318;2023-05-10T07:12:12;98272.72;;;13.12;100.00
28181;BME280;15464;50.988;10.318;2023-05-10T07:14:41;98277.22;;;13.11;100.00
28181;BME280;15464;50.988;10.318;2023-05-10T07:17:08;98273.25;;;13.15;100.00
28181;BME280;15464;50.988;10.318;2023-05-10T07:19:35;98280.44;;;13.23;100.00
28181;BME280;15464;50.988;10.318;2023-05-10T07:22:02;98281.78;;;13.27;100.00
28181;BME280;15464;50.988;10.318;2023-05-10T07:24:29;98284.28;;;13.45;100.00
28181;BME280;15464;50.988;10.318;2023-05-10T07:26:57;98282.09;;;13.32;100.00
28181;BME280;15464;50.988;10.318;2023-05-10T07:29:24;98294.63;;;13.56;100.00
28181;BME280;15464;50.988;10.318;2023-05-10T07:31:51;98294.09;;;13.44;100.00
28181;BME280;15464;50.988;10.318;2023-05-10T07:34:18;98298.78;;;13.42;100.00
28181;BME280;15464;50.988;10.318;2023-05-10T07:36:45;98292.63;;;13.58;100.00
28181;BME280;15464;50.988;10.318;2023-05-10T07:39:11;98291.47;;;13.68;100.00
28181;BME280;15464;50.988;10.318;2023-05-10T07:41:51;98298.97;;;13.73;99.69
28181;BME280;15464;50.988;10.318;2023-05-10T07:44:18;98293.81;;;13.80;100.00
28181;BME280;15464;50.988;10.318;2023-05-10T07:46:46;98302.44;;;13.82;99.25
28181;BME280;15464;50.988;10.318;2023-05-10T07:49:14;98309.44;;;13.83;98.41
28181;BME280;15464;50.988;10.318;2023-05-10T07:51:41;98303.78;;;13.94;98.15
28181;BME280;15464;50.988;10.318;2023-05-10T07:54:08;98304.44;;;13.96;98.52
28181;BME280;15464;50.988;10.318;2023-05-10T07:56:35;98313.78;;;13.84;98.22
28181;BME280;15464;50.988;10.318;2023-05-10T07:59:04;98309.13;;;14.02;99.17
28181;BME280;15464;50.988;10.318;2023-05-10T08:01:33;98320.78;;;14.09;97.23
28181;BME280;15464;50.988;10.318;2023-05-10T08:04:01;98310.94;;;14.09;95.92
28181;BME280;15464;50.988;10.318;2023-05-10T08:06:28;98316.75;;;14.29;95.95
28181;BME280;15464;50.988;10.318;2023-05-10T08:08:56;98324.91;;;14.44;96.13
28181;BME280;15464;50.988;10.318;2023-05-10T08:11:23;98311.69;;;14.67;96.16
28181;BME280;15464;50.988;10.318;2023-05-10T08:13:51;98321.69;;;14.65;94.76
28181;BME280;15464;50.988;10.318;2023-05-10T08:16:17;98324.72;;;14.53;93.09
28181;BME280;15464;50.988;10.318;2023-05-10T08:18:45;98314.69;;;14.64;91.84
28181;BME280;15464;50.988;10.318;2023-05-10T08:21:14;98326.75;;;14.27;93.11
28181;BME280;15464;50.988;10.318;2023-05-10T08:23:41;98330.41;;;14.50;93.34
28181;BME280;15464;50.988;10.318;2023-05-10T08:26:10;98335.50;;;14.68;91.00
28181;BME280;15464;50.988;10.318;2023-05-10T08:28:37;98335.16;;;14.79;90.51
28181;BME280;15464;50.988;10.318;2023-05-10T08:31:04;98328.94;;;14.87;89.51
28181;BME280;15464;50.988;10.318;2023-05-10T08:33:31;98332.31;;;14.81;87.85
28181;BME280;15464;50.988;10.318;2023-05-10T08:35:58;98321.63;;;15.20;86.92
28181;BME280;15464;50.988;10.318;2023-05-10T08:38:25;98328.94;;;15.57;88.03
28181;BME280;15464;50.988;10.318;2023-05-10T08:40:54;98334.81;;;15.75;85.37
28181;BME280;15464;50.988;10.318;2023-05-10T08:43:28;98329.06;;;15.86;85.14
28181;BME280;15464;50.988;10.318;2023-05-10T08:45:56;98327.03;;;15.65;84.51
28181;BME280;15464;50.988;10.318;2023-05-10T08:48:24;98333.09;;;15.59;84.12
28181;BME280;15464;50.988;10.318;2023-05-10T08:50:53;98338.72;;;15.11;84.51
28181;BME280;15464;50.988;10.318;2023-05-10T08:53:24;98344.53;;;15.14;85.01
28181;BME280;15464;50.988;10.318;2023-05-10T08:55:53;98351.72;;;15.06;84.78
28181;BME280;15464;50.988;10.318;2023-05-10T08:58:20;98358.25;;;15.11;86.10
28181;BME280;15464;50.988;10.318;2023-05-10T09:00:48;98368.03;;;14.80;88.08
28181;BME280;15464;50.988;10.318;2023-05-10T09:03:17;98368.63;;;14.98;88.98
28181;BME280;15464;50.988;10.318;2023-05-10T09:05:44;98353.34;;;14.84;88.39
28181;BME280;15464;50.988;10.318;2023-05-10T09:08:13;98365.00;;;14.91;88.24
28181;BME280;15464;50.988;10.318;2023-05-10T09:10:43;98375.69;;;14.91;88.39
28181;BME280;15464;50.988;10.318;2023-05-10T09:13:10;98372.94;;;14.99;88.03
28181;BME280;15464;50.988;10.318;2023-05-10T09:15:38;98374.81;;;14.99;88.72
28181;BME280;15464;50.988;10.318;2023-05-10T09:18:05;98366.81;;;14.99;89.29
28181;BME280;15464;50.988;10.318;2023-05-10T09:20:32;98378.56;;;15.12;88.20
28181;BME280;15464;50.988;10.318;2023-05-10T09:22:59;98381.31;;;15.04;88.72
28181;BME280;15464;50.988;10.318;2023-05-10T09:25:26;98379.97;;;15.00;88.48
28181;BME280;15464;50.988;10.318;2023-05-10T09:27:52;98385.94;;;15.10;87.13
28181;BME280;15464;50.988;10.318;2023-05-10T09:30:27;98381.59;;;15.17;88.12
28181;BME280;15464;50.988;10.318;2023-05-10T09:32:55;98385.59;;;15.13;88.34
28181;BME280;15464;50.988;10.318;2023-05-10T09:35:24;98386.94;;;15.17;88.10
28181;BME280;15464;50.988;10.318;2023-05-10T09:37:56;98393.97;;;15.10;88.79
28181;BME280;15464;50.988;10.318;2023-05-10T09:40:25;98402.91;;;14.78;88.71
28181;BME280;15464;50.988;10.318;2023-05-10T09:43:00;98396.81;;;15.01;89.35
28181;BME280;15464;50.988;10.318;2023-05-10T09:45:31;98394.97;;;15.09;89.58
28181;BME280;15464;50.988;10.318;2023-05-10T09:47:59;98400.31;;;15.09;88.00
28181;BME280;15464;50.988;10.318;2023-05-10T09:50:27;98399.81;;;15.06;87.55
28181;BME280;15464;50.988;10.318;2023-05-10T09:52:59;98404.59;;;15.18;87.01
28181;BME280;15464;50.988;10.318;2023-05-10T09:55:47;98394.25;;;15.23;85.90
28181;BME280;15464;50.988;10.318;2023-05-10T09:58:15;98398.56;;;15.24;87.42
28181;BME280;15464;50.988;10.318;2023-05-10T10:00:44;98399.50;;;15.40;85.93
28181;BME280;15464;50.988;10.318;2023-05-10T10:03:19;98402.31;;;15.46;85.40
28181;BME280;15464;50.988;10.318;2023-05-10T10:05:47;98408.50;;;15.55;85.01
28181;BME280;15464;50.988;10.318;2023-05-10T10:08:15;98398.56;;;15.63;84.02
28181;BME280;15464;50.988;10.318;2023-05-10T10:10:43;98399.25;;;15.88;82.20
28181;BME280;15464;50.988;10.318;2023-05-10T10:13:13;98398.06;;;16.13;83.07
28181;BME280;15464;50.988;10.318;2023-05-10T10:15:42;98387.63;;;16.19;82.23
28181;BME280;15464;50.988;10.318;2023-05-10T10:18:13;98394.13;;;16.62;81.44
28181;BME280;15464;50.988;10.318;2023-05-10T10:20:43;98391.47;;;16.76;79.83
28181;BME280;15464;50.988;10.318;2023-05-10T10:23:10;98399.84;;;16.59;79.32
28181;BME280;15464;50.988;10.318;2023-05-10T10:25:37;98397.41;;;16.11;79.41
28181;BME280;15464;50.988;10.318;2023-05-10T10:28:21;98400.28;;;16.10;79.95
28181;BME280;15464;50.988;10.318;2023-05-10T10:30:54;98399.28;;;16.26;78.90
28181;BME280;15464;50.988;10.318;2023-05-10T10:36:15;98407.50;;;16.01;80.98
28181;BME280;15464;50.988;10.318;2023-05-10T10:44:22;98414.00;;;15.84;82.62
28181;BME280;15464;50.988;10.318;2023-05-10T10:50:04;98404.88;;;15.70;82.02
28181;BME280;15464;50.988;10.318;2023-05-10T10:52:43;98413.81;;;15.86;81.76
28181;BME280;15464;50.988;10.318;2023-05-10T10:55:16;98410.00;;;16.03;80.21
28181;BME280;15464;50.988;10.318;2023-05-10T10:57:52;98409.25;;;16.54;79.29
28181;BME280;15464;50.988;10.318;2023-05-10T11:00:32;98407.41;;;16.55;79.75
28181;BME280;15464;50.988;10.318;2023-05-10T11:03:03;98411.28;;;16.52;79.25
28181;BME280;15464;50.988;10.318;2023-05-10T11:08:00;98402.81;;;16.64;77.16
28181;BME280;15464;50.988;10.318;2023-05-10T11:10:27;98402.47;;;16.44;76.90
28181;BME280;15464;50.988;10.318;2023-05-10T11:13:07;98399.06;;;16.50;75.70
28181;BME280;15464;50.988;10.318;2023-05-10T11:15:36;98400.81;;;16.43;75.04
28181;BME280;15464;50.988;10.318;2023-05-10T11:18:26;98402.38;;;16.60;76.00
28181;BME280;15464;50.988;10.318;2023-05-10T11:26:11;98399.34;;;16.92;73.68
28181;BME280;15464;50.988;10.318;2023-05-10T11:28:45;98391.38;;;16.99;73.98
28181;BME280;15464;50.988;10.318;2023-05-10T11:31:16;98401.19;;;17.21;75.31
28181;BME280;15464;50.988;10.318;2023-05-10T11:33:47;98397.44;;;17.66;72.56
28181;BME280;15464;50.988;10.318;2023-05-10T11:36:16;98396.63;;;17.87;70.74
28181;BME280;15464;50.988;10.318;2023-05-10T11:38:43;98398.28;;;17.88;70.40
28181;BME280;15464;50.988;10.318;2023-05-10T11:41:11;98398.97;;;17.76;69.39
28181;BME280;15464;50.988;10.318;2023-05-10T11:43:39;98398.53;;;17.72;69.39
28181;BME280;15464;50.988;10.318;2023-05-10T11:46:08;98400.56;;;17.55;69.46
28181;BME280;15464;50.988;10.318;2023-05-10T11:48:39;98396.88;;;17.56;71.22
28181;BME280;15464;50.988;10.318;2023-05-10T11:51:10;98401.16;;;17.65;71.57
28181;BME280;15464;50.988;10.318;2023-05-10T11:53:37;98407.72;;;17.48;70.80
28181;BME280;15464;50.988;10.318;2023-05-10T11:56:08;98407.34;;;17.51;71.37
28181;BME280;15464;50.988;10.318;2023-05-10T11:58:37;98410.59;;;17.61;71.64
28181;BME280;15464;50.988;10.318;2023-05-10T12:01:05;98404.06;;;17.56;70.99
28181;BME280;15464;50.988;10.318;2023-05-10T12:03:32;98406.97;;;17.54;70.96
28181;BME280;15464;50.988;10.318;2023-05-10T12:06:01;98409.91;;;17.59;70.50
28181;BME280;15464;50.988;10.318;2023-05-10T12:08:29;98412.44;;;17.61;70.08
28181;BME280;15464;50.988;10.318;2023-05-10T12:11:09;98403.16;;;17.63;69.64
28181;BME280;15464;50.988;10.318;2023-05-10T12:13:41;98407.34;;;17.66;69.01
28181;BME280;15464;50.988;10.318;2023-05-10T12:16:16;98409.00;;;17.52;68.78
28181;BME280;15464;50.988;10.318;2023-05-10T12:18:44;98413.34;;;17.39;68.34
28181;BME280;15464;50.988;10.318;2023-05-10T12:21:12;98413.19;;;17.25;68.57
28181;BME280;15464;50.988;10.318;2023-05-10T12:23:39;98422.16;;;17.18;69.00
28181;BME280;15464;50.988;10.318;2023-05-10T12:26:06;98416.81;;;17.03;69.08
28181;BME280;15464;50.988;10.318;2023-05-10T12:28:35;98424.19;;;17.01;69.07
28181;BME280;15464;50.988;10.318;2023-05-10T12:31:02;98418.28;;;17.06;70.16
28181;BME280;15464;50.988;10.318;2023-05-10T12:33:37;98421.78;;;17.06;69.21
28181;BME280;15464;50.988;10.318;2023-05-10T12:36:05;98427.53;;;17.03;69.32
28181;BME280;15464;50.988;10.318;2023-05-10T12:38:34;98432.59;;;16.83;69.31
28181;BME280;15464;50.988;10.318;2023-05-10T12:41:03;98437.09;;;16.68;69.54
28181;BME280;15464;50.988;10.318;2023-05-10T12:43:31;98439.59;;;16.70;69.66
28181;BME280;15464;50.988;10.318;2023-05-10T12:45:58;98436.47;;;16.58;70.37
28181;BME280;15464;50.988;10.318;2023-05-10T12:48:25;98433.53;;;16.53;70.25
28181;BME280;15464;50.988;10.318;2023-05-10T12:50:52;98444.38;;;16.60;70.54
28181;BME280;15464;50.988;10.318;2023-05-10T12:53:19;98446.25;;;16.51;70.89
28181;BME280;15464;50.988;10.318;2023-05-10T12:55:46;98446.84;;;16.38;71.66
28181;BME280;15464;50.988;10.318;2023-05-10T12:58:13;98452.47;;;16.29;72.05
28181;BME280;15464;50.988;10.318;2023-05-10T13:01:00;98443.06;;;16.33;71.79
28181;BME280;15464;50.988;10.318;2023-05-10T13:03:27;98456.38;;;16.41;71.33
28181;BME280;15464;50.988;10.318;2023-05-10T13:05:54;98449.81;;;16.43;72.45
28181;BME280;15464;50.988;10.318;2023-05-10T13:08:20;98449.72;;;16.37;72.32
28181;BME280;15464;50.988;10.318;2023-05-10T13:10:47;98452.38;;;16.37;72.29
28181;BME280;15464;50.988;10.318;2023-05-10T13:13:15;98452.31;;;16.30;72.33
28181;BME280;15464;50.988;10.318;2023-05-10T13:15:42;98450.81;;;16.28;72.27
28181;BME280;15464;50.988;10.318;2023-05-10T13:18:08;98457.81;;;16.29;72.19
28181;BME280;15464;50.988;10.318;2023-05-10T13:20:35;98453.66;;;16.26;72.62
28181;BME280;15464;50.988;10.318;2023-05-10T13:23:02;98453.31;;;16.29;73.13
28181;BME280;15464;50.988;10.318;2023-05-10T13:25:29;98446.41;;;16.35;73.86
28181;BME280;15464;50.988;10.318;2023-05-10T13:27:56;98443.06;;;16.33;73.99
28181;BME280;15464;50.988;10.318;2023-05-10T13:30:23;98457.09;;;16.35;74.11
28181;BME280;15464;50.988;10.318;2023-05-10T13:32:50;98457.75;;;16.37;73.87
28181;BME280;15464;50.988;10.318;2023-05-10T13:35:17;98450.09;;;16.34;73.54
28181;BME280;15464;50.988;10.318;2023-05-10T13:37:43;98455.06;;;16.37;72.36
28181;BME280;15464;50.988;10.318;2023-05-10T13:40:10;98449.72;;;16.37;72.03